Accueil
METAR-TAF:

METAR-TAF

Aéroports :

Aéroport de Bordeaux-Mérignac

Bordeaux, France

latitude: 44-50N, longitude: 000-42W, altitude: 49 m

Observation

Le bulletin a été fait il y a 22 minutes, à 11:30 UTC
Vent 5 kt de est/sud-est
Température 13°C
Humidité 67%
Pression 1027 hPa
Visibilité 10 km ou plus
pas de nuages en-dessous de 1500 mètres et pas de cumulonimbus.

METAR: LFBD 161130Z AUTO 12005KT CAVOK 13/07 Q1027 NOSIG

Heure: 12:52 (11:52 UTC)

Prévision

Le bulletin a été fait il y a 52 minutes, à 11:00 UTC
Prévision valable du 16 à 12 UTC au 17 à 18 UTC
Vent 7 kt de sud-est
Visibilité 10 km ou plus
pas de nuages en-dessous de 1500 mètres et pas de cumulonimbus.
Temporairement
du 17 à 00 UTC au 17 à 07 UTC
Visibilité: 3000 m
brume

TAF: LFBD 161100Z 1612/1718 14007KT CAVOK TX19/1714Z TN05/1705Z TEMPO 1700/1707 3000 BR

Observations et prévisions météorologiques de plus de 4000 aéroports (messages METAR et TAF).

Les stations disponibles sont représentées par des disques jaunes et rouges sur la carte.

Passer la souris dessus pour voir le nom de la station.

Cliquer dessus pour voir les observations et prévisions météorologiques.

Pour changer de carte: cliquez sur les boutons verts avec une croix noire pour zoomer, sur le bouton vert avec un tiret pour effectuer un zoom arrière, ou sur les flèches vertes pour les cartes adjacentes.


METAR-TAF: